Time;durP1;ratioP1;P1;durP2;ratioP2;P2;SDS_P1;SDS_P2;PMS_P1;PMS_P2;Temp;Humidity;BMP_temperature;BMP_pressure;BME280_temperature;BME280_humidity;BME280_pressure;Samples;Min_cycle;Max_cycle;Signal;HPM_P1;HPM_P2
2023/11/19 00:02:34;;;;;;;10.60;8.52;;;6.90;99.90;;;;;;5063946;28;20036;-81
2023/11/19 00:05:21;;;;;;;14.00;9.80;;;6.90;99.90;;;;;;5072983;28;20453;-79
2023/11/19 00:08:08;;;;;;;14.07;9.70;;;7.00;99.90;;;;;;5071668;28;20052;-81
2023/11/19 00:10:56;;;;;;;11.93;9.68;;;7.00;99.90;;;;;;5082492;28;20052;-80
2023/11/19 00:13:43;;;;;;;13.70;9.57;;;7.00;99.90;;;;;;5065929;28;20059;-81
2023/11/19 00:16:32;;;;;;;15.93;9.70;;;7.00;99.90;;;;;;5071863;28;20056;-81
2023/11/19 00:19:19;;;;;;;12.52;9.07;;;7.00;99.90;;;;;;5069991;28;20125;-81
2023/11/19 00:22:06;;;;;;;13.93;9.40;;;7.10;99.90;;;;;;5074346;28;20048;-80
2023/11/19 00:24:56;;;;;;;17.02;9.50;;;7.10;99.90;;;;;;5067820;28;20688;-80
2023/11/19 00:27:46;;;;;;;16.08;9.52;;;7.10;99.90;;;;;;5073821;28;20104;-79
2023/11/19 00:30:36;;;;;;;12.40;8.50;;;7.10;99.90;;;;;;5066652;28;20721;-80
2023/11/19 00:33:26;;;;;;;13.27;9.30;;;7.20;99.90;;;;;;5050334;28;20407;-80
2023/11/19 00:36:13;;;;;;;11.50;8.55;;;7.20;99.90;;;;;;5070535;28;20494;-80
2023/11/19 00:39:03;;;;;;;14.88;9.60;;;7.30;99.90;;;;;;5064360;28;20365;-80
2023/11/19 00:41:50;;;;;;;11.32;7.93;;;7.30;99.90;;;;;;5071021;28;20056;-81
2023/11/19 00:44:37;;;;;;;14.63;8.05;;;7.40;99.90;;;;;;5072234;28;20117;-80
2023/11/19 00:47:25;;;;;;;11.82;8.30;;;7.50;99.90;;;;;;5068611;28;20116;-80
2023/11/19 00:50:13;;;;;;;9.57;7.10;;;7.50;99.90;;;;;;5069895;28;20052;-80
2023/11/19 00:53:01;;;;;;;10.05;6.97;;;7.60;99.90;;;;;;5076825;28;20049;-80
2023/11/19 00:55:51;;;;;;;8.88;6.90;;;7.70;99.90;;;;;;5070542;28;20054;-81
2023/11/19 00:58:38;;;;;;;9.57;6.25;;;7.70;99.90;;;;;;5066184;28;20211;-81
2023/11/19 01:01:28;;;;;;;8.48;6.25;;;7.70;99.90;;;;;;5070034;28;20041;-80
2023/11/19 01:04:15;;;;;;;8.93;6.63;;;7.80;99.90;;;;;;5069848;28;20211;-80
2023/11/19 01:07:04;;;;;;;9.68;6.90;;;7.80;99.90;;;;;;5082204;28;20037;-78
2023/11/19 01:09:51;;;;;;;11.10;7.00;;;7.80;99.90;;;;;;5072294;28;20131;-81
2023/11/19 01:12:39;;;;;;;9.93;6.72;;;7.80;99.90;;;;;;5068852;28;20052;-80
2023/11/19 01:15:26;;;;;;;11.00;6.75;;;7.90;99.90;;;;;;5070582;28;20154;-79
2023/11/19 01:18:16;;;;;;;8.52;6.43;;;7.90;99.90;;;;;;5072508;28;20125;-81
2023/11/19 01:21:05;;;;;;;8.68;6.47;;;7.90;99.90;;;;;;5070777;28;20436;-80
2023/11/19 01:23:55;;;;;;;11.00;7.38;;;8.00;99.90;;;;;;5068654;28;20040;-81
2023/11/19 01:26:45;;;;;;;8.27;7.00;;;8.00;99.90;;;;;;5064153;28;20127;-81
2023/11/19 01:29:33;;;;;;;8.75;6.38;;;8.00;99.90;;;;;;5077869;28;20357;-80
2023/11/19 01:32:24;;;;;;;10.20;6.85;;;8.00;99.90;;;;;;5067594;28;20040;-80
2023/11/19 01:35:11;;;;;;;9.38;6.80;;;8.00;99.90;;;;;;5062686;28;20060;-80
2023/11/19 01:37:58;;;;;;;11.25;6.15;;;8.00;99.90;;;;;;5070062;28;20425;-80
2023/11/19 01:40:48;;;;;;;8.35;6.03;;;8.10;99.90;;;;;;5070615;28;20052;-81
2023/11/19 01:43:41;;;;;;;7.72;6.30;;;8.10;99.90;;;;;;5067232;28;20123;-81
2023/11/19 01:46:30;;;;;;;10.68;5.88;;;8.10;99.90;;;;;;5052441;28;20052;-80
2023/11/19 01:49:18;;;;;;;9.77;5.65;;;8.20;99.90;;;;;;5070128;28;20421;-80
2023/11/19 01:52:06;;;;;;;9.38;4.78;;;8.20;99.90;;;;;;5059475;28;20056;-81
2023/11/19 01:54:54;;;;;;;6.97;4.72;;;8.30;99.90;;;;;;5063839;28;20052;-80
2023/11/19 01:57:41;;;;;;;6.05;5.13;;;8.30;99.90;;;;;;5069988;28;20153;-79
2023/11/19 02:00:28;;;;;;;7.38;5.32;;;8.30;99.90;;;;;;5063274;28;20063;-80
2023/11/19 02:03:19;;;;;;;7.15;3.90;;;8.30;99.90;;;;;;5067044;28;20039;-81
2023/11/19 02:06:10;;;;;;;5.60;4.30;;;8.40;99.90;;;;;;5088196;28;20097;-81
2023/11/19 02:08:57;;;;;;;6.43;3.80;;;8.40;99.90;;;;;;5069812;28;20052;-81
2023/11/19 02:11:44;;;;;;;3.50;3.20;;;8.40;99.90;;;;;;5076160;28;20444;-79
2023/11/19 02:14:33;;;;;;;5.47;3.88;;;8.50;99.90;;;;;;5088654;28;20063;-81
2023/11/19 02:17:34;;;;;;;3.38;3.00;;;8.50;99.90;;;;;;5088481;28;20179;-81
2023/11/19 02:20:22;;;;;;;4.80;2.85;;;8.50;99.90;;;;;;5054386;28;20464;-80
2023/11/19 02:23:13;;;;;;;4.82;2.80;;;8.50;99.90;;;;;;5071900;28;20155;-81
2023/11/19 02:26:08;;;;;;;5.57;2.85;;;8.60;99.90;;;;;;5071650;28;20072;-81
2023/11/19 02:28:56;;;;;;;3.95;2.47;;;8.60;99.90;;;;;;5064258;28;20041;-81
2023/11/19 02:31:43;;;;;;;3.72;2.33;;;8.60;99.90;;;;;;5074923;28;20357;-82
2023/11/19 02:34:31;;;;;;;2.38;2.03;;;8.70;99.90;;;;;;5074166;28;20047;-78
2023/11/19 02:37:19;;;;;;;2.47;1.60;;;8.70;99.90;;;;;;5082408;28;20048;-80
2023/11/19 02:40:08;;;;;;;1.98;1.48;;;8.80;99.90;;;;;;5079626;28;20059;-79
2023/11/19 02:42:56;;;;;;;3.58;1.95;;;8.80;99.90;;;;;;5089447;28;20040;-79
2023/11/19 02:45:45;;;;;;;2.75;1.52;;;8.80;99.90;;;;;;5071300;28;20046;-80
2023/11/19 02:48:35;;;;;;;1.30;1.15;;;8.90;99.90;;;;;;5066084;28;20472;-80
2023/11/19 02:51:22;;;;;;;0.90;0.90;;;9.00;99.90;;;;;;5051553;28;20094;-81
2023/11/19 02:54:12;;;;;;;0.98;0.98;;;9.00;99.90;;;;;;5065757;28;20108;-80
2023/11/19 02:57:01;;;;;;;1.15;0.85;;;9.10;99.90;;;;;;5075719;28;20662;-80
2023/11/19 02:59:50;;;;;;;1.02;0.90;;;9.10;99.90;;;;;;5066281;28;20166;-80
2023/11/19 03:02:47;;;;;;;1.73;0.90;;;9.10;99.90;;;;;;5068307;28;20041;-80
2023/11/19 03:05:35;;;;;;;1.00;0.90;;;9.10;99.90;;;;;;5074415;28;20435;-80
2023/11/19 03:08:22;;;;;;;1.50;0.90;;;9.20;99.90;;;;;;5052986;28;20053;-80
2023/11/19 03:11:10;;;;;;;1.27;0.88;;;9.20;99.90;;;;;;5081579;28;20052;-80
2023/11/19 03:13:59;;;;;;;1.42;0.75;;;9.20;99.90;;;;;;5068713;28;20356;-80
2023/11/19 03:16:46;;;;;;;0.60;0.60;;;9.20;99.90;;;;;;5068166;28;20066;-80
2023/11/19 03:19:34;;;;;;;0.98;0.88;;;9.20;99.90;;;;;;5062842;28;20106;-80
2023/11/19 03:22:21;;;;;;;1.55;0.82;;;9.20;99.90;;;;;;5071582;28;20076;-80
2023/11/19 03:25:09;;;;;;;0.98;0.90;;;9.20;99.90;;;;;;5067493;28;20048;-80
2023/11/19 03:27:58;;;;;;;1.80;0.80;;;9.20;99.90;;;;;;5073671;28;20173;-80
2023/11/19 03:30:45;;;;;;;1.50;0.80;;;9.20;99.90;;;;;;5072056;28;20644;-80
2023/11/19 03:33:35;;;;;;;1.35;0.80;;;9.20;99.90;;;;;;5058234;28;20071;-82
2023/11/19 03:36:25;;;;;;;1.50;0.80;;;9.20;99.90;;;;;;5074818;28;20417;-83
2023/11/19 03:39:14;;;;;;;1.95;1.05;;;9.20;99.90;;;;;;5055399;28;20053;-83
2023/11/19 03:42:03;;;;;;;2.58;1.17;;;9.30;99.90;;;;;;5072963;28;20045;-83
2023/11/19 03:44:52;;;;;;;0.95;0.90;;;9.30;99.90;;;;;;5064423;28;20051;-83
2023/11/19 03:47:39;;;;;;;1.08;0.80;;;9.30;99.90;;;;;;5072955;28;20055;-81
2023/11/19 03:50:27;;;;;;;1.10;1.00;;;9.30;99.90;;;;;;5074577;28;20106;-83
2023/11/19 03:53:19;;;;;;;3.97;1.13;;;9.30;99.90;;;;;;5088961;28;20355;-83
2023/11/19 03:56:09;;;;;;;0.63;0.60;;;9.30;99.90;;;;;;5072656;28;20044;-85
2023/11/19 03:59:00;;;;;;;0.80;0.80;;;9.30;99.90;;;;;;5076323;28;20052;-83
2023/11/19 04:01:48;;;;;;;0.90;0.90;;;9.30;99.90;;;;;;5072256;28;20037;-83
2023/11/19 04:04:35;;;;;;;1.00;0.90;;;9.30;99.90;;;;;;5062041;28;20453;-84
2023/11/19 04:07:23;;;;;;;1.45;1.35;;;9.30;99.90;;;;;;5068910;28;20060;-83
2023/11/19 04:10:10;;;;;;;2.40;1.30;;;9.30;99.90;;;;;;5085549;28;20082;-83
2023/11/19 04:12:57;;;;;;;1.15;1.05;;;9.30;99.90;;;;;;5071822;28;20041;-81
2023/11/19 04:15:47;;;;;;;0.70;0.70;;;9.30;99.90;;;;;;5073734;28;20123;-82
2023/11/19 04:18:37;;;;;;;0.77;0.60;;;9.30;99.90;;;;;;5072668;28;20048;-83
2023/11/19 04:21:30;;;;;;;0.70;0.70;;;9.40;99.90;;;;;;5078694;28;20051;-83
2023/11/19 04:24:17;;;;;;;3.50;0.70;;;9.40;99.90;;;;;;5071165;28;20064;-83
2023/11/19 04:27:06;;;;;;;0.60;0.60;;;9.40;99.90;;;;;;5073969;28;20123;-79
2023/11/19 04:29:54;;;;;;;0.60;0.60;;;9.40;99.90;;;;;;5076394;28;20511;-83
2023/11/19 04:32:43;;;;;;;3.45;0.68;;;9.40;99.90;;;;;;5070088;28;20045;-83
2023/11/19 04:35:31;;;;;;;0.55;0.55;;;9.40;99.90;;;;;;5064118;28;20451;-82
2023/11/19 04:38:22;;;;;;;2.25;0.95;;;9.40;99.90;;;;;;5072835;28;20041;-83
2023/11/19 04:41:09;;;;;;;0.70;0.70;;;9.40;99.90;;;;;;5078361;28;20051;-83
2023/11/19 04:43:59;;;;;;;1.10;1.00;;;9.40;99.90;;;;;;5058855;28;20045;-83
2023/11/19 04:46:49;;;;;;;0.93;0.80;;;9.40;99.90;;;;;;5061936;28;20123;-83
2023/11/19 04:49:42;;;;;;;1.00;1.00;;;9.40;99.90;;;;;;5065297;28;20040;-84
2023/11/19 04:52:32;;;;;;;1.05;0.95;;;9.40;99.90;;;;;;5072196;28;20117;-83
2023/11/19 04:55:22;;;;;;;1.40;1.30;;;9.50;99.90;;;;;;5065854;28;20091;-83
2023/11/19 04:58:09;;;;;;;0.90;0.90;;;9.50;99.90;;;;;;5080085;28;20059;-84
2023/11/19 05:01:04;;;;;;;1.52;1.42;;;9.50;99.90;;;;;;5070589;28;20036;-82
2023/11/19 05:03:51;;;;;;;2.85;1.77;;;9.50;99.90;;;;;;5053078;28;20049;-82
2023/11/19 05:06:41;;;;;;;1.30;1.20;;;9.50;99.90;;;;;;5060073;28;20055;-82
2023/11/19 05:09:30;;;;;;;1.70;1.50;;;9.50;99.90;;;;;;5076322;28;20098;-83
2023/11/19 05:12:17;;;;;;;1.60;1.10;;;9.50;99.90;;;;;;5081369;28;20044;-83
2023/11/19 05:15:07;;;;;;;2.75;1.10;;;9.50;99.90;;;;;;5085503;28;20040;-80
2023/11/19 05:17:55;;;;;;;2.50;1.30;;;9.50;99.90;;;;;;5089643;28;20048;-82
2023/11/19 05:20:45;;;;;;;1.10;1.10;;;9.50;99.90;;;;;;5079973;28;20098;-84
2023/11/19 05:23:35;;;;;;;1.35;1.20;;;9.50;99.90;;;;;;5071406;28;20045;-82
2023/11/19 05:26:24;;;;;;;2.53;1.10;;;9.50;99.90;;;;;;5066827;28;20099;-84
2023/11/19 05:29:16;;;;;;;2.78;1.02;;;9.50;99.90;;;;;;5076663;28;20062;-83
2023/11/19 05:32:06;;;;;;;1.25;1.02;;;9.60;99.90;;;;;;5073969;28;20048;-81
2023/11/19 05:34:54;;;;;;;1.50;1.40;;;9.60;99.90;;;;;;5069955;28;20036;-83
2023/11/19 05:37:45;;;;;;;2.60;1.13;;;9.60;99.90;;;;;;5073744;28;20353;-83
2023/11/19 05:40:36;;;;;;;1.05;1.00;;;9.60;99.90;;;;;;5070028;28;20044;-81
2023/11/19 05:43:24;;;;;;;5.30;1.20;;;9.60;99.90;;;;;;5079093;28;20040;-83
2023/11/19 05:46:13;;;;;;;1.00;1.00;;;9.60;99.90;;;;;;5067493;28;20112;-81
2023/11/19 05:49:03;;;;;;;2.25;1.05;;;9.60;99.90;;;;;;5068694;28;20051;-82
2023/11/19 05:51:55;;;;;;;1.05;1.05;;;9.60;99.90;;;;;;5066861;28;20183;-83
2023/11/19 05:54:47;;;;;;;1.00;1.00;;;9.60;99.90;;;;;;5084841;28;20392;-84
2023/11/19 05:57:42;;;;;;;2.67;0.93;;;9.60;99.90;;;;;;5071832;28;20040;-83
2023/11/19 06:00:35;;;;;;;0.90;0.90;;;9.60;99.90;;;;;;5062856;28;20108;-81
2023/11/19 06:03:25;;;;;;;1.13;0.90;;;9.70;99.90;;;;;;5068262;28;20413;-82
2023/11/19 06:06:12;;;;;;;1.38;1.10;;;9.70;99.90;;;;;;5072792;28;20055;-82
2023/11/19 06:09:01;;;;;;;0.90;0.90;;;9.70;99.90;;;;;;5070621;28;20178;-82
2023/11/19 06:12:02;;;;;;;1.13;0.98;;;9.70;99.90;;;;;;5070302;28;20041;-83
2023/11/19 06:14:49;;;;;;;1.67;1.25;;;9.80;99.90;;;;;;5078121;28;20054;-83
2023/11/19 06:17:39;;;;;;;1.80;1.50;;;9.80;99.90;;;;;;5057931;28;20348;-83
2023/11/19 06:20:28;;;;;;;3.67;1.10;;;9.80;99.90;;;;;;5074364;28;20044;-84
2023/11/19 06:23:29;;;;;;;1.23;1.13;;;9.80;99.90;;;;;;5061227;28;20041;-82
2023/11/19 06:26:17;;;;;;;1.40;1.30;;;9.80;99.90;;;;;;5068971;28;20044;-82
2023/11/19 06:29:06;;;;;;;3.03;1.60;;;9.70;99.90;;;;;;5069286;28;20044;-82
2023/11/19 06:31:55;;;;;;;1.90;1.70;;;9.80;99.90;;;;;;5060741;28;20059;-82
2023/11/19 06:34:42;;;;;;;1.40;1.30;;;9.80;99.90;;;;;;5069700;28;20055;-83
2023/11/19 06:37:32;;;;;;;1.40;1.10;;;9.70;99.90;;;;;;5063992;28;20120;-82
2023/11/19 06:40:20;;;;;;;1.58;1.40;;;9.80;99.90;;;;;;5057541;28;20063;-83
2023/11/19 06:43:10;;;;;;;1.52;1.40;;;9.70;99.90;;;;;;5067329;28;20144;-84
2023/11/19 06:45:57;;;;;;;1.20;1.20;;;9.70;99.90;;;;;;5059168;28;20036;-83
2023/11/19 06:48:47;;;;;;;1.20;1.10;;;9.80;99.90;;;;;;5063993;28;20056;-81
2023/11/19 06:51:34;;;;;;;1.98;1.58;;;9.70;99.90;;;;;;5070689;28;20082;-83
2023/11/19 06:54:25;;;;;;;1.70;1.42;;;9.80;99.90;;;;;;5070540;28;20066;-82
2023/11/19 06:57:13;;;;;;;4.22;1.90;;;9.80;99.90;;;;;;5071877;28;20058;-83
2023/11/19 07:00:03;;;;;;;1.70;1.60;;;9.80;99.90;;;;;;5082717;28;20371;-83
2023/11/19 07:02:55;;;;;;;;;;;9.90;99.90;;;;;;5072023;28;20048;-81
2023/11/19 07:05:45;;;;;;;1.73;1.50;;;9.90;99.90;;;;;;5059669;28;20054;-81
2023/11/19 07:08:34;;;;;;;2.67;1.40;;;9.90;99.90;;;;;;5073850;28;20059;-81
2023/11/19 07:11:21;;;;;;;3.58;1.20;;;9.90;99.90;;;;;;5078541;28;20055;-81
2023/11/19 07:14:11;;;;;;;4.35;1.27;;;9.90;99.90;;;;;;5077994;28;20044;-82
2023/11/19 07:17:00;;;;;;;2.20;1.60;;;9.80;99.90;;;;;;5079109;28;20039;-82
2023/11/19 07:19:52;;;;;;;1.75;1.50;;;9.90;99.90;;;;;;5068740;28;20347;-82
2023/11/19 07:22:39;;;;;;;2.40;1.20;;;9.90;99.90;;;;;;5073262;28;20123;-80
2023/11/19 07:25:29;;;;;;;2.38;2.00;;;10.00;99.90;;;;;;5067063;28;20353;-82
2023/11/19 07:28:17;;;;;;;2.35;1.20;;;10.00;99.90;;;;;;5068387;28;20123;-83
2023/11/19 07:31:05;;;;;;;1.20;1.10;;;10.10;99.90;;;;;;5074235;28;20120;-81
2023/11/19 07:33:52;;;;;;;2.45;1.48;;;10.10;99.90;;;;;;5077264;28;20048;-82
2023/11/19 07:36:41;;;;;;;1.55;1.05;;;10.20;99.90;;;;;;5091126;28;20036;-80
2023/11/19 07:39:29;;;;;;;1.20;1.10;;;10.20;99.90;;;;;;5062869;28;20052;-80
2023/11/19 07:42:16;;;;;;;1.00;1.00;;;10.20;99.90;;;;;;5063344;28;20045;-82
2023/11/19 07:45:05;;;;;;;0.73;0.73;;;10.20;99.90;;;;;;5069343;28;20048;-81
2023/11/19 07:47:55;;;;;;;2.70;1.00;;;10.20;99.90;;;;;;5058416;28;20041;-82
2023/11/19 07:50:50;;;;;;;1.30;1.00;;;10.30;99.90;;;;;;5063182;28;20471;-82
2023/11/19 07:53:38;;;;;;;1.08;0.80;;;10.30;99.90;;;;;;5075499;28;20139;-81
2023/11/19 07:56:28;;;;;;;0.73;0.73;;;10.30;99.90;;;;;;5071761;28;20048;-82
2023/11/19 07:59:15;;;;;;;1.10;1.00;;;10.30;99.90;;;;;;5083614;28;20044;-81
2023/11/19 08:02:05;;;;;;;1.63;1.00;;;10.30;99.90;;;;;;5067239;28;20051;-81
2023/11/19 08:04:55;;;;;;;1.20;0.98;;;10.30;99.90;;;;;;5072384;28;20044;-81
2023/11/19 08:07:42;;;;;;;2.33;1.10;;;10.30;99.90;;;;;;5076789;28;20051;-82
2023/11/19 08:10:33;;;;;;;1.70;1.00;;;10.40;99.90;;;;;;5069077;28;20067;-80
2023/11/19 08:13:22;;;;;;;1.23;0.93;;;10.40;99.90;;;;;;5074413;28;20606;-82
2023/11/19 08:16:10;;;;;;;1.25;0.75;;;10.50;99.90;;;;;;5065188;28;20059;-81
2023/11/19 08:18:58;;;;;;;1.02;0.70;;;10.50;99.90;;;;;;5069277;28;20057;-79
2023/11/19 08:21:48;;;;;;;0.40;0.40;;;10.50;99.90;;;;;;5072637;28;20040;-80
2023/11/19 08:24:35;;;;;;;0.93;0.63;;;10.60;99.90;;;;;;5070090;28;20051;-81
2023/11/19 08:27:26;;;;;;;2.05;0.70;;;10.60;99.90;;;;;;5051222;28;20048;-80
2023/11/19 08:30:14;;;;;;;1.65;0.70;;;10.70;99.90;;;;;;5086701;28;20048;-82
2023/11/19 08:33:05;;;;;;;1.00;0.60;;;10.70;99.90;;;;;;5059439;28;20758;-82
2023/11/19 08:35:54;;;;;;;1.38;0.70;;;10.70;99.90;;;;;;5058785;28;20053;-80
2023/11/19 08:38:42;;;;;;;2.50;0.70;;;10.80;99.90;;;;;;5070195;28;20040;-80
2023/11/19 08:41:30;;;;;;;1.10;0.60;;;11.10;99.90;;;;;;5072369;28;20055;-80
2023/11/19 08:44:19;;;;;;;2.58;0.68;;;11.40;99.90;;;;;;5056161;28;20040;-83
2023/11/19 08:47:07;;;;;;;1.60;1.08;;;11.70;99.90;;;;;;5067833;28;20048;-80
2023/11/19 08:49:57;;;;;;;1.55;1.40;;;12.00;99.90;;;;;;5077283;28;20151;-78
2023/11/19 08:52:52;;;;;;;2.08;1.70;;;12.10;99.90;;;;;;5083045;28;20147;-78
2023/11/19 08:55:40;;;;;;;1.58;0.90;;;12.40;99.90;;;;;;5080390;28;20148;-81
2023/11/19 08:58:33;;;;;;;1.27;0.70;;;12.30;99.90;;;;;;5079749;28;20119;-79
2023/11/19 09:01:21;;;;;;;5.70;1.52;;;12.10;99.90;;;;;;5072876;28;20052;-80
2023/11/19 09:04:09;;;;;;;3.33;0.75;;;11.90;99.90;;;;;;5074282;28;20047;-81
2023/11/19 09:06:58;;;;;;;1.20;0.73;;;12.00;99.90;;;;;;5074605;28;20120;-77
2023/11/19 09:09:45;;;;;;;2.92;0.95;;;12.30;99.90;;;;;;5095631;28;20107;-80
2023/11/19 09:12:35;;;;;;;1.17;1.08;;;12.80;99.90;;;;;;5081901;28;20060;-80
2023/11/19 09:15:24;;;;;;;1.30;0.73;;;12.90;99.90;;;;;;5077447;28;20109;-78
2023/11/19 09:23:15;;;;;;;;;;;;;;;;;;;;;
2023/11/19 09:35:38;;;;;;;;;;;;;;;;;;;;;
2023/11/19 09:44:41;;;;;;;0.80;0.80;;;12.70;99.90;;;;;;4829648;29;20057;-80
2023/11/19 09:48:19;;;;;;;;;;;;;;;;;;;;;
2023/11/19 10:05:02;;;;;;;1.73;1.13;;;14.20;27.80;;;;;;4881200;29;20045;-81
2023/11/19 10:07:52;;;;;;;2.03;0.68;;;13.60;99.90;;;;;;4935962;28;20050;-79
2023/11/19 10:10:39;;;;;;;0.65;0.65;;;13.60;99.90;;;;;;5006180;28;20465;-79
2023/11/19 10:13:28;;;;;;;1.50;0.90;;;14.20;99.90;;;;;;4983627;28;20509;-82
2023/11/19 10:16:18;;;;;;;1.23;0.70;;;13.80;25.10;;;;;;4976806;28;20343;-81
2023/11/19 10:19:06;;;;;;;0.73;0.70;;;13.70;98.00;;;;;;4996881;28;20058;-81
2023/11/19 10:21:53;;;;;;;1.65;0.90;;;13.40;1.00;;;;;;5068932;28;20044;-80
2023/11/19 10:24:40;;;;;;;5.55;3.20;;;13.30;99.90;;;;;;5068480;28;20162;-81
2023/11/19 10:27:35;;;;;;;2.25;0.60;;;13.30;1.00;;;;;;5068633;28;20071;-79
2023/11/19 10:30:26;;;;;;;4.00;1.00;;;13.60;99.90;;;;;;5066732;28;20052;-79
2023/11/19 10:33:17;;;;;;;0.95;0.80;;;13.40;4.40;;;;;;5066464;28;20056;-79
2023/11/19 10:36:08;;;;;;;2.05;0.60;;;13.30;3.30;;;;;;5071896;28;20052;-80
2023/11/19 10:38:57;;;;;;;1.10;0.60;;;13.20;1.00;;;;;;5064972;28;20041;-81
2023/11/19 10:41:49;;;;;;;1.55;1.00;;;13.50;1.00;;;;;;5067101;28;20052;-81
2023/11/19 10:44:38;;;;;;;2.58;0.70;;;14.50;99.90;;;;;;5068032;28;20032;-80
2023/11/19 10:47:31;;;;;;;3.20;0.80;;;16.00;1.00;;;;;;5070060;28;20044;-80
2023/11/19 10:50:25;;;;;;;0.52;0.50;;;17.20;99.90;;;;;;5067586;28;20127;-80
2023/11/19 10:53:13;;;;;;;0.57;0.57;;;17.00;99.90;;;;;;5057076;28;20040;-82
2023/11/19 10:56:10;;;;;;;2.33;0.60;;;16.40;99.90;;;;;;5057641;28;20695;-80
2023/11/19 10:59:03;;;;;;;3.40;1.15;;;15.70;99.90;;;;;;5065497;28;20041;-81
2023/11/19 11:02:16;;;;;;;2.50;0.70;;;16.10;99.90;;;;;;5057767;28;20040;-80
2023/11/19 11:05:05;;;;;;;0.68;0.63;;;15.40;54.20;;;;;;5071330;28;20052;-80
2023/11/19 11:07:59;;;;;;;2.72;0.70;;;15.10;88.00;;;;;;5066920;28;20041;-81
2023/11/19 11:10:55;;;;;;;1.45;0.63;;;14.90;51.80;;;;;;5069518;28;20036;-82
2023/11/19 11:13:49;;;;;;;1.27;0.70;;;14.70;41.60;;;;;;5068978;28;20044;-79
2023/11/19 11:16:41;;;;;;;3.58;0.65;;;14.50;1.00;;;;;;5063779;28;20117;-82
2023/11/19 11:19:29;;;;;;;2.10;0.75;;;14.20;1.00;;;;;;5068921;28;20045;-81
2023/11/19 11:22:20;;;;;;;2.53;0.70;;;14.10;41.50;;;;;;5059889;28;20055;-81
2023/11/19 11:25:30;;;;;;;2.15;0.70;;;13.90;42.70;;;;;;5084561;28;20371;-81
2023/11/19 11:28:23;;;;;;;2.42;0.60;;;13.80;23.20;;;;;;5068841;28;20044;-80
2023/11/19 11:31:37;;;;;;;2.30;0.80;;;13.60;35.10;;;;;;5068692;28;20075;-81
2023/11/19 11:34:33;;;;;;;1.95;0.80;;;13.60;48.60;;;;;;5062263;28;20041;-81
2023/11/19 11:37:33;;;;;;;2.67;0.88;;;13.60;77.90;;;;;;5060357;28;20048;-79
2023/11/19 11:40:23;;;;;;;2.75;0.80;;;13.60;99.90;;;;;;5069056;28;20052;-78
2023/11/19 11:43:45;;;;;;;2.47;1.17;;;13.60;99.90;;;;;;5066581;28;20357;-78
2023/11/19 11:46:36;;;;;;;1.73;0.63;;;13.50;99.90;;;;;;5073023;28;20101;-81
2023/11/19 11:49:27;;;;;;;1.10;0.50;;;13.50;99.90;;;;;;5072503;28;20045;-81
2023/11/19 11:52:15;;;;;;;1.85;0.80;;;13.60;99.90;;;;;;5073371;28;20083;-82
2023/11/19 11:55:08;;;;;;;0.98;0.70;;;13.60;99.90;;;;;;5062481;28;20056;-83
2023/11/19 11:57:55;;;;;;;2.35;0.80;;;13.80;99.90;;;;;;5069856;28;20083;-79
2023/11/19 12:00:43;;;;;;;1.17;0.68;;;14.00;99.90;;;;;;5071196;28;20491;-80
2023/11/19 12:03:31;;;;;;;4.20;0.80;;;13.90;99.90;;;;;;5066402;28;20098;-80
2023/11/19 12:06:24;;;;;;;3.03;1.42;;;14.00;99.90;;;;;;5068216;28;20044;-82
2023/11/19 12:09:12;;;;;;;3.03;0.77;;;14.30;99.90;;;;;;5069702;28;20060;-80
2023/11/19 12:12:15;;;;;;;3.50;0.77;;;14.70;1.00;;;;;;5069688;28;20138;-81
2023/11/19 12:15:05;;;;;;;2.08;0.70;;;14.50;1.00;;;;;;5068913;28;20055;-80
2023/11/19 12:27:24;;;;;;;8.63;1.08;;;14.20;1.00;;;;;;5013858;28;20046;-78
2023/11/19 12:30:12;;;;;;;2.78;0.75;;;15.40;1.00;;;;;;5003376;28;20057;-81
2023/11/19 12:33:00;;;;;;;2.30;0.68;;;16.40;99.90;;;;;;5008567;28;20104;-81
2023/11/19 12:35:50;;;;;;;2.70;1.17;;;15.60;99.90;;;;;;5031846;28;20060;-79
2023/11/19 12:38:37;;;;;;;2.92;0.70;;;15.00;99.90;;;;;;5025066;28;20062;-81
2023/11/19 12:41:25;;;;;;;2.92;1.10;;;14.90;99.90;;;;;;5017359;28;20049;-80
2023/11/19 12:44:12;;;;;;;1.92;0.70;;;14.90;99.90;;;;;;5003983;28;20042;-82
2023/11/19 12:47:04;;;;;;;3.05;1.50;;;15.50;99.90;;;;;;4997494;28;20454;-80
2023/11/19 12:49:58;;;;;;;2.37;1.17;;;15.60;62.60;;;;;;4997138;28;20478;-80
2023/11/19 12:52:58;;;;;;;2.78;0.93;;;15.80;6.10;;;;;;5009577;28;20042;-82
2023/11/19 12:55:49;;;;;;;1.58;1.20;;;16.00;1.00;;;;;;5012967;28;20046;-80
2023/11/19 12:58:38;;;;;;;4.00;0.73;;;16.50;1.00;;;;;;4997374;28;20516;-80
2023/11/19 13:01:26;;;;;;;1.90;0.70;;;15.40;1.00;;;;;;4999178;28;20056;-81
2023/11/19 13:04:20;;;;;;;3.75;1.83;;;15.30;1.00;;;;;;5000709;28;20046;-78
2023/11/19 13:07:08;;;;;;;4.10;1.20;;;15.80;1.00;;;;;;5000424;28;20048;-79
2023/11/19 13:10:06;;;;;;;1.60;1.10;;;16.70;1.00;;;;;;4998429;28;20053;-82
2023/11/19 13:13:05;;;;;;;2.08;0.75;;;16.80;1.00;;;;;;5012102;28;20394;-82
2023/11/19 13:15:52;;;;;;;1.70;1.00;;;16.60;1.00;;;;;;5005335;28;20049;-81
2023/11/19 13:21:24;;;;;;;1.20;0.50;;;17.10;99.90;;;;;;6087080;23;20029;-80
2023/11/19 13:24:12;;;;;;;3.75;1.60;;;18.80;99.90;;;;;;4990894;28;20077;-81
2023/11/19 13:27:02;;;;;;;2.17;1.15;;;19.10;99.90;;;;;;4988813;28;20051;-80
2023/11/19 13:29:49;;;;;;;1.52;1.00;;;19.10;99.90;;;;;;4995538;28;20066;-80
2023/11/19 13:32:37;;;;;;;1.38;0.70;;;18.20;99.90;;;;;;4984110;28;20046;-81
2023/11/19 13:35:30;;;;;;;1.90;1.00;;;17.30;99.90;;;;;;4978435;28;20545;-80
2023/11/19 13:38:17;;;;;;;;;;;17.90;99.90;;;;;;4991745;28;20149;-80
2023/11/19 13:41:06;;;;;;;4.43;1.58;;;16.90;99.90;;;;;;4989163;28;19965;-80
2023/11/19 13:43:55;;;;;;;2.85;1.25;;;16.00;99.90;;;;;;4990326;28;20089;-81
2023/11/19 13:46:45;;;;;;;2.85;0.98;;;15.80;99.90;;;;;;4994251;28;20057;-80
2023/11/19 13:49:35;;;;;;;3.95;1.60;;;15.60;99.90;;;;;;4994543;28;20046;-79
2023/11/19 13:52:23;;;;;;;1.25;0.95;;;15.10;99.90;;;;;;4994283;28;20073;-80
2023/11/19 13:55:11;;;;;;;3.58;1.10;;;14.70;99.90;;;;;;4993810;28;20049;-79
2023/11/19 13:58:01;;;;;;;1.30;0.70;;;15.30;99.90;;;;;;4989465;28;20439;-80
2023/11/19 14:00:50;;;;;;;2.40;0.88;;;16.00;99.90;;;;;;4992808;28;20103;-80
2023/11/19 14:03:38;;;;;;;2.30;0.80;;;16.40;99.90;;;;;;4984676;28;20085;-82
2023/11/19 14:06:25;;;;;;;1.13;0.80;;;17.30;99.90;;;;;;4975953;28;20730;-80
2023/11/19 14:09:13;;;;;;;2.58;1.00;;;17.80;99.90;;;;;;4991019;28;20034;-80
2023/11/19 14:12:00;;;;;;;1.63;0.77;;;17.30;99.90;;;;;;4990935;28;20042;-82
2023/11/19 14:14:52;;;;;;;1.65;0.60;;;17.40;99.90;;;;;;5012842;28;20073;-80
2023/11/19 14:17:39;;;;;;;1.05;0.70;;;17.20;99.90;;;;;;4994181;28;20042;-81
2023/11/19 14:20:29;;;;;;;0.73;0.63;;;17.40;99.90;;;;;;4989093;28;20134;-80
2023/11/19 14:23:17;;;;;;;1.25;0.77;;;17.10;99.90;;;;;;4983243;28;20057;-81
2023/11/19 14:26:05;;;;;;;1.65;0.85;;;16.90;99.90;;;;;;4984594;28;20181;-81
2023/11/19 14:28:59;;;;;;;1.10;0.70;;;16.90;99.90;;;;;;4991321;28;20439;-81
2023/11/19 14:31:46;;;;;;;1.00;0.57;;;16.70;99.90;;;;;;4991610;28;20114;-81
2023/11/19 14:34:36;;;;;;;0.88;0.70;;;16.40;99.90;;;;;;4993187;28;20054;-82
2023/11/19 14:37:26;;;;;;;1.20;0.60;;;15.80;99.90;;;;;;4985521;28;20490;-82
2023/11/19 14:40:14;;;;;;;0.98;0.63;;;14.60;99.90;;;;;;5010249;28;20047;-83
2023/11/19 14:43:01;;;;;;;2.33;1.10;;;14.10;99.90;;;;;;4997091;28;20043;-82
2023/11/19 14:45:50;;;;;;;2.95;1.60;;;13.90;99.90;;;;;;5009557;28;20047;-80
2023/11/19 14:48:40;;;;;;;1.48;1.00;;;13.50;99.90;;;;;;4996989;28;20152;-79
2023/11/19 14:51:29;;;;;;;1.70;0.80;;;13.40;99.90;;;;;;4992362;28;20042;-82
2023/11/19 14:54:20;;;;;;;4.03;1.60;;;13.40;99.90;;;;;;4986178;28;20066;-81
2023/11/19 14:57:08;;;;;;;4.03;1.60;;;13.10;99.90;;;;;;4993211;28;20042;-79
2023/11/19 14:59:55;;;;;;;2.45;0.77;;;13.20;99.90;;;;;;4998372;28;20122;-78
2023/11/19 15:02:43;;;;;;;0.80;0.80;;;13.00;99.90;;;;;;4992008;28;20042;-78
2023/11/19 15:05:30;;;;;;;2.10;0.70;;;12.80;99.90;;;;;;4987147;28;20100;-81
2023/11/19 15:08:20;;;;;;;1.65;0.82;;;12.60;99.90;;;;;;4991335;28;20057;-79
2023/11/19 15:11:09;;;;;;;2.58;1.00;;;12.50;99.90;;;;;;4988955;28;20050;-80
2023/11/19 15:13:59;;;;;;;2.03;1.05;;;12.40;99.90;;;;;;4990482;28;20038;-80
2023/11/19 15:16:50;;;;;;;2.42;1.30;;;12.30;99.90;;;;;;4987744;28;20049;-80
2023/11/19 15:19:38;;;;;;;3.17;1.30;;;12.20;99.90;;;;;;4991151;28;20066;-82
2023/11/19 15:22:26;;;;;;;7.60;3.28;;;12.10;99.90;;;;;;4991503;28;20404;-81
2023/11/19 15:25:16;;;;;;;9.75;4.45;;;12.00;99.90;;;;;;4989415;28;20438;-78
2023/11/19 15:28:04;;;;;;;1.50;1.00;;;11.90;1.00;;;;;;4993615;28;20145;-79
2023/11/19 15:30:51;;;;;;;4.05;1.95;;;11.80;1.00;;;;;;4994227;28;20140;-79
2023/11/19 15:33:41;;;;;;;3.17;1.55;;;11.80;1.00;;;;;;4987560;28;20097;-79
2023/11/19 15:36:28;;;;;;;2.33;1.30;;;11.60;1.00;;;;;;4994705;28;20053;-81
2023/11/19 15:39:18;;;;;;;2.50;1.38;;;11.60;1.00;;;;;;4989357;28;20062;-80
2023/11/19 15:42:06;;;;;;;1.63;1.30;;;11.50;1.00;;;;;;4990219;28;20499;-80